CheckWX is a tool to help pilots better visualize weather data.  It is not intended as a substitute for an official pre-flight weather briefing.

04:11:25 UTC

KIIB METAR
Independence Municipal Airport
Independence, Iowa, USA
Current

16 mins ago

KIIB 270355Z AUTO 09005KT 10SM CLR 17/12 A3004 RMK AO2 T01720115
Observed
May-27 @ 03:55 UTC
Wind
  • 090° at 5 KTS
Visibility
10 SM
Flight Rules
VFR
Cloud Levels
  • Clear skies
Temperature
17°C / 63°F
Dewpoint
12°C / 54°F
Humidity
73%
Altimeter
30.04" Hg
Pressure
1017.32 hPa
Previous

36 mins ago

KIIB 270335Z AUTO 10005KT 10SM CLR 17/12 A3004 RMK AO2 T01720123
Observed
May-27 @ 03:35 UTC
Wind
  • 100° at 5 KTS
Visibility
10 SM
Flight Rules
VFR
Cloud Levels
  • Clear skies
Temperature
17°C / 63°F
Dewpoint
12°C / 54°F
Humidity
73%
Altimeter
30.04" Hg
Pressure
1017.32 hPa
Previous

56 mins ago

KIIB 270315Z AUTO 09004KT 10SM CLR 18/12 A3004 RMK AO2 T01790121
Observed
May-27 @ 03:15 UTC
Wind
  • 090° at 4 KTS
Visibility
10 SM
Flight Rules
VFR
Cloud Levels
  • Clear skies
Temperature
18°C / 64°F
Dewpoint
12°C / 54°F
Humidity
68%
Altimeter
30.04" Hg
Pressure
1017.32 hPa